Time;durP1;ratioP1;P1;durP2;ratioP2;P2;SDS_P1;SDS_P2;PMS_P1;PMS_P2;Temp;Humidity;BMP_temperature;BMP_pressure;BME280_temperature;BME280_humidity;BME280_pressure;Samples;Min_cycle;Max_cycle;Signal;HPM_P1;HPM_P2
2023/03/24 06:00:30;;;;;;;2.87;2.67;;;14.70;97.20;;;;;;1707210;28;20182;-65
2023/03/24 06:01:21;;;;;;;3.13;2.38;;;14.70;97.20;;;;;;1707128;29;20664;-66
2023/03/24 06:02:13;;;;;;;3.37;2.60;;;14.70;97.20;;;;;;1707286;29;20580;-63
2023/03/24 06:03:04;;;;;;;3.17;2.97;;;14.70;97.20;;;;;;1707486;29;20202;-64
2023/03/24 06:03:56;;;;;;;4.57;3.00;;;14.70;97.20;;;;;;1707511;29;20246;-64
2023/03/24 06:04:47;;;;;;;4.90;2.95;;;14.70;97.20;;;;;;1707303;29;20824;-64
2023/03/24 06:05:39;;;;;;;2.85;2.65;;;14.70;97.20;;;;;;1707128;28;20248;-64
2023/03/24 06:06:30;;;;;;;2.60;2.30;;;14.70;97.20;;;;;;1707210;29;20202;-64
2023/03/24 06:07:25;;;;;;;2.40;2.13;;;14.70;97.20;;;;;;1707503;29;20205;-63
2023/03/24 06:08:17;;;;;;;3.00;2.72;;;14.70;97.20;;;;;;1707352;29;20214;-65
2023/03/24 06:09:09;;;;;;;6.50;2.70;;;14.70;97.20;;;;;;1707377;29;20212;-64
2023/03/24 06:10:02;;;;;;;8.82;2.90;;;14.70;97.20;;;;;;1707254;29;20206;-64
2023/03/24 06:10:54;;;;;;;3.42;2.50;;;14.70;97.20;;;;;;1707223;28;20218;-64
2023/03/24 06:11:44;;;;;;;2.90;2.65;;;14.70;97.20;;;;;;1707132;29;20210;-64
2023/03/24 06:12:36;;;;;;;3.50;2.87;;;14.60;97.20;;;;;;1707293;29;20552;-65
2023/03/24 06:13:27;;;;;;;3.05;2.83;;;14.60;97.20;;;;;;1707334;29;20209;-64
2023/03/24 06:14:19;;;;;;;4.73;2.90;;;14.70;97.20;;;;;;1707318;29;20207;-64
2023/03/24 06:15:11;;;;;;;4.00;3.63;;;14.70;97.20;;;;;;1706967;29;20206;-64
2023/03/24 06:16:04;;;;;;;5.03;3.80;;;14.70;97.20;;;;;;1706970;29;20198;-65
2023/03/24 06:16:58;;;;;;;4.03;2.80;;;14.70;97.20;;;;;;1707130;28;20213;-64
2023/03/24 06:17:53;;;;;;;3.60;3.30;;;14.70;97.20;;;;;;1707263;28;20206;-63
2023/03/24 06:18:51;;;;;;;3.40;3.03;;;14.70;97.20;;;;;;1707303;28;20210;-64
2023/03/24 06:19:47;;;;;;;3.83;2.63;;;14.70;97.20;;;;;;1707299;28;20213;-65
2023/03/24 06:20:40;;;;;;;2.70;2.50;;;14.70;97.20;;;;;;1707074;28;20237;-65
2023/03/24 06:21:31;;;;;;;4.63;2.90;;;14.70;97.20;;;;;;1707266;29;20203;-64
2023/03/24 06:22:22;;;;;;;3.60;2.97;;;14.70;97.20;;;;;;1707199;29;20575;-64
2023/03/24 06:23:14;;;;;;;4.70;3.13;;;14.70;97.20;;;;;;1707295;28;20419;-64
2023/03/24 06:24:05;;;;;;;3.20;3.00;;;14.70;97.20;;;;;;1707332;29;20206;-64
2023/03/24 06:24:57;;;;;;;3.05;2.85;;;14.70;97.20;;;;;;1707265;28;20625;-64
2023/03/24 06:25:49;;;;;;;3.30;3.00;;;14.70;97.20;;;;;;1706872;29;20687;-64
2023/03/24 06:26:43;;;;;;;3.38;3.08;;;14.70;97.20;;;;;;1707172;29;20202;-65
2023/03/24 06:27:34;;;;;;;3.83;3.53;;;14.70;97.20;;;;;;1707327;29;20249;-65
2023/03/24 06:28:29;;;;;;;2.85;2.65;;;14.70;97.20;;;;;;1707156;29;20242;-64
2023/03/24 06:29:19;;;;;;;3.05;2.75;;;14.60;97.20;;;;;;1707238;28;20528;-63
2023/03/24 06:30:12;;;;;;;2.93;2.73;;;14.60;97.20;;;;;;1707211;28;20208;-64
2023/03/24 06:31:06;;;;;;;3.33;3.03;;;14.60;97.20;;;;;;1707231;28;20213;-64
2023/03/24 06:31:57;;;;;;;3.30;2.90;;;14.60;97.20;;;;;;1707161;29;20668;-63
2023/03/24 06:32:49;;;;;;;5.10;3.10;;;14.60;97.20;;;;;;1706964;29;20202;-64
2023/03/24 06:33:41;;;;;;;3.40;3.05;;;14.50;97.20;;;;;;1707005;29;20277;-64
2023/03/24 06:34:32;;;;;;;3.00;2.75;;;14.50;97.20;;;;;;1707434;28;20552;-64
2023/03/24 06:35:23;;;;;;;2.93;2.73;;;14.50;97.20;;;;;;1706912;29;20198;-64
2023/03/24 06:36:15;;;;;;;3.10;2.90;;;14.50;97.20;;;;;;1707183;29;20451;-65
2023/03/24 06:37:06;;;;;;;5.13;3.65;;;14.50;97.20;;;;;;1707058;29;20557;-64
2023/03/24 06:37:57;;;;;;;4.15;3.10;;;14.50;97.20;;;;;;1707301;29;20218;-64
2023/03/24 06:38:50;;;;;;;3.53;3.23;;;14.50;97.20;;;;;;1707225;29;20289;-65
2023/03/24 06:39:40;;;;;;;2.90;2.70;;;14.40;97.20;;;;;;1707222;29;20213;-65
2023/03/24 06:40:33;;;;;;;3.13;2.93;;;14.40;97.20;;;;;;1707091;28;20250;-64
2023/03/24 06:41:23;;;;;;;3.70;2.92;;;14.40;97.20;;;;;;1706895;29;20244;-64
2023/03/24 06:42:17;;;;;;;4.90;3.37;;;14.40;97.20;;;;;;1707261;28;20199;-65
2023/03/24 06:43:08;;;;;;;4.63;3.33;;;14.40;97.20;;;;;;1707158;28;20207;-64
2023/03/24 06:44:00;;;;;;;5.17;3.27;;;14.40;97.20;;;;;;1707212;28;20230;-64
2023/03/24 06:44:50;;;;;;;3.13;2.80;;;14.40;97.20;;;;;;1707265;28;20202;-64
2023/03/24 06:45:43;;;;;;;3.07;2.87;;;14.40;97.20;;;;;;1706833;28;20198;-64
2023/03/24 06:46:36;;;;;;;3.30;3.00;;;14.40;97.20;;;;;;1707214;28;20202;-65
2023/03/24 06:47:28;;;;;;;3.78;3.03;;;14.40;97.20;;;;;;1707197;28;20668;-65
2023/03/24 06:48:19;;;;;;;3.65;3.42;;;14.40;97.20;;;;;;1707227;28;20210;-64
2023/03/24 06:49:10;;;;;;;4.10;3.60;;;14.40;97.20;;;;;;1707213;28;20700;-64
2023/03/24 06:50:02;;;;;;;3.40;3.10;;;14.40;97.20;;;;;;1707173;28;20675;-64
2023/03/24 06:50:54;;;;;;;4.05;3.75;;;14.40;97.20;;;;;;1707209;28;20226;-65
2023/03/24 06:51:45;;;;;;;3.50;2.95;;;14.40;97.20;;;;;;1707128;28;20202;-64
2023/03/24 06:52:37;;;;;;;4.17;3.30;;;14.50;97.20;;;;;;1707122;28;20215;-64
2023/03/24 06:53:28;;;;;;;4.10;3.05;;;14.50;97.20;;;;;;1707271;28;20446;-64
2023/03/24 06:54:19;;;;;;;3.30;3.00;;;14.50;97.20;;;;;;1707286;28;20698;-65
2023/03/24 06:55:10;;;;;;;3.20;2.85;;;14.50;97.20;;;;;;1706724;28;20210;-64
2023/03/24 06:56:02;;;;;;;3.77;3.47;;;14.50;97.20;;;;;;1700643;29;20215;-65
2023/03/24 06:56:53;;;;;;;3.88;3.45;;;14.50;97.20;;;;;;1700409;29;20218;-65
2023/03/24 06:57:44;;;;;;;3.10;2.90;;;14.50;97.20;;;;;;1700607;29;20294;-64
2023/03/24 06:58:35;;;;;;;3.75;3.45;;;14.50;97.20;;;;;;1700614;29;20211;-65
2023/03/24 06:59:27;;;;;;;3.60;3.30;;;14.50;97.20;;;;;;1700557;29;20191;-64
2023/03/24 07:00:18;;;;;;;4.07;3.67;;;14.50;97.20;;;;;;1700492;29;20211;-64
2023/03/24 07:01:11;;;;;;;3.90;3.55;;;14.50;97.20;;;;;;1700567;29;20283;-65
2023/03/24 07:02:03;;;;;;;4.07;3.78;;;14.50;97.20;;;;;;1700603;29;20211;-64
2023/03/24 07:02:55;;;;;;;3.78;3.47;;;14.60;97.20;;;;;;1700528;29;20741;-64
2023/03/24 07:03:47;;;;;;;4.13;3.70;;;14.50;97.20;;;;;;1700550;29;20219;-64
2023/03/24 07:04:38;;;;;;;3.58;3.30;;;14.50;97.20;;;;;;1700535;29;20199;-64
2023/03/24 07:05:29;;;;;;;4.55;3.00;;;14.50;97.20;;;;;;1700277;29;20472;-64
2023/03/24 07:06:22;;;;;;;3.40;3.10;;;14.50;97.20;;;;;;1700590;29;20199;-65
2023/03/24 07:07:13;;;;;;;3.47;3.17;;;14.50;97.20;;;;;;1700558;29;20211;-63
2023/03/24 07:08:05;;;;;;;4.80;4.00;;;14.50;97.20;;;;;;1700627;29;20243;-63
2023/03/24 07:08:56;;;;;;;3.25;2.95;;;14.50;97.20;;;;;;1701428;29;20784;-64
2023/03/24 07:09:49;;;;;;;4.03;3.38;;;14.40;97.20;;;;;;1701818;29;20404;-64
2023/03/24 07:10:40;;;;;;;3.90;3.15;;;14.40;97.20;;;;;;1701698;29;20230;-64
2023/03/24 07:11:31;;;;;;;4.13;3.42;;;14.40;97.20;;;;;;1703156;29;20673;-64
2023/03/24 07:12:22;;;;;;;3.42;3.13;;;14.40;97.20;;;;;;1708315;28;20234;-64
2023/03/24 07:13:14;;;;;;;3.40;3.10;;;14.40;97.20;;;;;;1708385;28;20217;-65
2023/03/24 07:14:05;;;;;;;4.07;3.67;;;14.30;97.20;;;;;;1708206;28;20206;-64
2023/03/24 07:14:57;;;;;;;3.70;3.40;;;14.30;97.20;;;;;;1708271;28;20202;-64
2023/03/24 07:15:48;;;;;;;3.55;3.25;;;14.30;97.20;;;;;;1708130;28;20203;-65
2023/03/24 07:16:39;;;;;;;4.17;3.77;;;14.30;97.20;;;;;;1708307;28;20229;-64
2023/03/24 07:17:32;;;;;;;4.32;3.92;;;14.30;97.20;;;;;;1708409;28;20221;-64
2023/03/24 07:18:23;;;;;;;4.75;3.15;;;14.30;97.20;;;;;;1708362;28;20206;-64
2023/03/24 07:19:14;;;;;;;3.30;3.05;;;14.20;97.20;;;;;;1708400;28;20209;-64
2023/03/24 07:20:07;;;;;;;4.13;3.70;;;14.20;97.20;;;;;;1708325;28;20202;-64
2023/03/24 07:20:58;;;;;;;3.58;3.28;;;14.20;97.20;;;;;;1708260;28;20230;-64
2023/03/24 07:21:50;;;;;;;3.93;3.60;;;14.20;97.20;;;;;;1708458;28;20290;-64
2023/03/24 07:22:41;;;;;;;4.40;3.40;;;14.20;97.20;;;;;;1708283;28;20449;-66
2023/03/24 07:23:33;;;;;;;3.43;3.23;;;14.10;97.20;;;;;;1708437;28;20199;-67
2023/03/24 07:24:23;;;;;;;3.80;3.50;;;14.10;97.20;;;;;;1708258;28;20203;-67
2023/03/24 07:25:18;;;;;;;4.00;3.60;;;14.10;97.20;;;;;;1708032;28;20207;-66
2023/03/24 07:26:09;;;;;;;3.85;3.22;;;14.10;97.20;;;;;;1708294;28;20456;-66
2023/03/24 07:27:01;;;;;;;3.75;3.45;;;14.10;97.20;;;;;;1708228;28;20238;-66
2023/03/24 07:27:53;;;;;;;4.95;3.70;;;14.10;97.20;;;;;;1708171;28;20202;-66
2023/03/24 07:28:46;;;;;;;4.45;4.05;;;14.00;97.20;;;;;;1708286;29;20213;-66
2023/03/24 07:29:36;;;;;;;3.85;3.45;;;14.00;97.20;;;;;;1708156;29;20664;-66
2023/03/24 07:30:28;;;;;;;4.40;4.00;;;14.00;97.20;;;;;;1708205;28;20657;-66
2023/03/24 07:31:21;;;;;;;3.30;3.00;;;14.00;97.20;;;;;;1708223;29;20206;-66
2023/03/24 07:32:13;;;;;;;4.15;3.85;;;14.00;97.20;;;;;;1708024;29;20193;-66
2023/03/24 07:33:08;;;;;;;3.88;3.40;;;14.00;97.20;;;;;;1708253;28;20217;-67
2023/03/24 07:34:00;;;;;;;3.95;3.45;;;14.00;97.20;;;;;;1708251;29;20206;-65
2023/03/24 07:34:51;;;;;;;4.13;3.72;;;14.00;97.20;;;;;;1708355;29;20207;-66
2023/03/24 07:35:43;;;;;;;4.85;3.78;;;14.00;97.20;;;;;;1708063;29;20209;-66
2023/03/24 07:36:34;;;;;;;5.32;4.25;;;14.00;97.20;;;;;;1708263;29;20210;-66
2023/03/24 07:37:26;;;;;;;3.90;3.60;;;14.00;97.20;;;;;;1708196;29;20206;-66
2023/03/24 07:38:17;;;;;;;4.13;3.83;;;14.00;97.20;;;;;;1708120;29;20502;-66
2023/03/24 07:39:09;;;;;;;4.73;4.00;;;14.00;97.20;;;;;;1708197;29;20198;-66
2023/03/24 07:40:00;;;;;;;4.78;3.75;;;14.00;97.20;;;;;;1708299;29;20579;-66
2023/03/24 07:40:51;;;;;;;4.60;3.73;;;14.00;97.20;;;;;;1708199;28;20245;-66
2023/03/24 07:41:42;;;;;;;3.67;3.38;;;14.00;97.20;;;;;;1708311;29;20202;-67
2023/03/24 07:42:34;;;;;;;4.20;3.90;;;14.00;97.20;;;;;;1708241;29;20205;-66
2023/03/24 07:43:25;;;;;;;4.00;3.70;;;14.00;97.20;;;;;;1707949;29;20203;-66
2023/03/24 07:44:17;;;;;;;3.80;3.50;;;14.00;97.20;;;;;;1708126;28;20261;-66
2023/03/24 07:45:09;;;;;;;4.10;3.80;;;13.90;97.20;;;;;;1708196;29;20691;-65
2023/03/24 07:46:01;;;;;;;4.95;3.63;;;13.90;97.20;;;;;;1708173;29;20202;-66
2023/03/24 07:46:52;;;;;;;3.83;3.53;;;13.90;97.20;;;;;;1708134;29;20206;-65
2023/03/24 07:47:45;;;;;;;4.27;3.87;;;13.90;97.20;;;;;;1708158;29;20290;-66
2023/03/24 07:48:37;;;;;;;4.40;4.00;;;13.90;97.20;;;;;;1708163;29;20460;-67
2023/03/24 07:49:29;;;;;;;4.20;3.85;;;13.90;97.20;;;;;;1708168;28;20214;-66
2023/03/24 07:50:20;;;;;;;4.38;3.97;;;13.90;97.20;;;;;;1708094;28;20211;-65
2023/03/24 07:51:11;;;;;;;4.50;3.83;;;13.90;97.20;;;;;;1708098;29;20203;-66
2023/03/24 07:52:05;;;;;;;4.20;3.80;;;13.90;97.20;;;;;;1708136;29;20668;-65
2023/03/24 07:52:56;;;;;;;4.50;4.10;;;13.90;97.20;;;;;;1707971;29;20234;-66
2023/03/24 07:53:47;;;;;;;5.00;4.60;;;13.90;97.20;;;;;;1708070;29;20564;-65
2023/03/24 07:54:39;;;;;;;5.23;4.67;;;13.90;97.20;;;;;;1708151;28;20226;-66
2023/03/24 07:55:30;;;;;;;8.13;7.20;;;13.90;97.20;;;;;;1707832;29;20199;-65
2023/03/24 07:56:22;;;;;;;9.52;8.60;;;13.90;97.20;;;;;;1708079;29;20261;-66
2023/03/24 07:57:12;;;;;;;10.70;9.60;;;13.90;97.20;;;;;;1708029;29;20215;-67
2023/03/24 07:58:05;;;;;;;13.17;9.03;;;13.90;97.20;;;;;;1708043;29;20199;-66
2023/03/24 07:58:56;;;;;;;16.42;14.63;;;13.90;97.20;;;;;;1708213;29;20344;-66
2023/03/24 07:59:47;;;;;;;14.25;12.32;;;13.90;97.20;;;;;;1708145;29;20506;-65
2023/03/24 08:00:38;;;;;;;15.55;13.70;;;13.90;97.20;;;;;;1707676;28;20218;-65
2023/03/24 08:01:30;;;;;;;11.63;9.80;;;13.90;97.20;;;;;;1708128;29;20234;-65
2023/03/24 08:02:21;;;;;;;8.90;8.10;;;14.00;97.20;;;;;;1708097;29;20569;-66
2023/03/24 08:03:14;;;;;;;9.10;8.20;;;14.00;97.20;;;;;;1708101;29;20265;-66
2023/03/24 08:04:06;;;;;;;8.10;7.00;;;14.00;97.20;;;;;;1708086;29;20206;-65
2023/03/24 08:04:58;;;;;;;6.80;6.20;;;14.00;97.20;;;;;;1708112;29;20366;-65
2023/03/24 08:05:50;;;;;;;6.07;5.57;;;14.00;97.20;;;;;;1707980;28;20237;-65
2023/03/24 08:06:42;;;;;;;7.47;5.10;;;14.10;97.20;;;;;;1708201;29;20206;-65
2023/03/24 08:07:33;;;;;;;4.60;4.22;;;14.10;97.20;;;;;;1708111;29;20206;-65
2023/03/24 08:08:24;;;;;;;4.15;3.75;;;14.10;97.20;;;;;;1708071;29;20738;-66
2023/03/24 08:09:16;;;;;;;4.50;4.10;;;14.10;97.20;;;;;;1708059;29;20604;-67
2023/03/24 08:10:08;;;;;;;4.97;4.47;;;14.10;97.20;;;;;;1708032;29;20226;-65
2023/03/24 08:11:00;;;;;;;4.20;3.90;;;14.10;97.20;;;;;;1708005;28;20653;-65
2023/03/24 08:11:51;;;;;;;4.93;4.45;;;14.10;97.20;;;;;;1708140;29;20214;-66
2023/03/24 08:12:42;;;;;;;4.70;4.30;;;14.10;97.20;;;;;;1707915;29;20233;-66
2023/03/24 08:13:33;;;;;;;4.55;3.72;;;14.20;97.20;;;;;;1708090;29;20469;-66
2023/03/24 08:14:25;;;;;;;4.63;3.57;;;14.20;97.20;;;;;;1708127;28;20199;-67
2023/03/24 08:15:16;;;;;;;4.70;4.20;;;14.20;97.20;;;;;;1707987;28;20246;-66
2023/03/24 08:16:08;;;;;;;5.38;3.90;;;14.20;97.20;;;;;;1708001;29;20676;-66
2023/03/24 08:16:59;;;;;;;3.97;3.67;;;14.20;97.20;;;;;;1707638;29;20206;-66
2023/03/24 08:17:51;;;;;;;4.73;4.30;;;14.20;97.20;;;;;;1708040;28;20212;-66
2023/03/24 08:18:42;;;;;;;4.93;4.53;;;14.20;97.20;;;;;;1708009;28;20206;-66
2023/03/24 08:19:35;;;;;;;4.20;3.80;;;14.20;97.20;;;;;;1707871;28;20660;-65
2023/03/24 08:20:28;;;;;;;5.85;4.15;;;14.20;97.20;;;;;;1707931;28;20210;-66
2023/03/24 08:21:20;;;;;;;5.00;4.43;;;14.30;97.20;;;;;;1707958;28;20206;-66
2023/03/24 08:22:10;;;;;;;4.43;4.05;;;14.30;97.20;;;;;;1708021;28;20214;-66
2023/03/24 08:23:03;;;;;;;4.60;4.10;;;14.30;97.20;;;;;;1707940;28;20198;-66
2023/03/24 08:23:54;;;;;;;4.30;4.00;;;14.30;97.20;;;;;;1708064;28;20276;-67
2023/03/24 08:24:45;;;;;;;4.13;3.73;;;14.30;97.20;;;;;;1707988;28;20218;-67
2023/03/24 08:25:37;;;;;;;5.18;4.75;;;14.30;97.20;;;;;;1707696;28;20211;-66
2023/03/24 08:26:29;;;;;;;5.95;4.15;;;14.30;97.20;;;;;;1707906;28;20222;-66
2023/03/24 08:27:20;;;;;;;4.60;4.20;;;14.40;97.20;;;;;;1708041;28;20605;-66
2023/03/24 08:28:12;;;;;;;4.80;4.30;;;14.40;97.20;;;;;;1707955;28;20614;-66
2023/03/24 08:29:03;;;;;;;5.03;4.57;;;14.40;97.20;;;;;;1707759;28;20202;-66
2023/03/24 08:29:55;;;;;;;4.53;4.13;;;14.40;97.20;;;;;;1707839;29;20215;-66
2023/03/24 08:30:45;;;;;;;5.90;4.10;;;14.40;97.20;;;;;;1707564;28;20235;-65
2023/03/24 08:31:37;;;;;;;4.70;4.33;;;14.40;97.20;;;;;;1707979;29;20715;-67
2023/03/24 08:32:28;;;;;;;4.70;4.32;;;14.40;97.20;;;;;;1707847;29;20202;-66
2023/03/24 08:33:19;;;;;;;4.20;3.80;;;14.40;97.20;;;;;;1707831;28;20661;-66
2023/03/24 08:34:10;;;;;;;4.72;4.32;;;14.40;97.20;;;;;;1707947;29;20249;-66
2023/03/24 08:35:04;;;;;;;4.60;4.30;;;14.40;97.20;;;;;;1707781;29;20238;-66
2023/03/24 08:35:56;;;;;;;4.40;4.10;;;14.40;97.20;;;;;;1707689;29;20242;-66
2023/03/24 08:36:47;;;;;;;4.95;4.10;;;14.40;97.20;;;;;;1707857;28;20264;-66
2023/03/24 08:37:39;;;;;;;3.93;3.63;;;14.40;97.20;;;;;;1707842;29;20202;-66
2023/03/24 08:38:29;;;;;;;3.72;3.42;;;14.40;97.20;;;;;;1707761;29;20213;-67
2023/03/24 08:39:23;;;;;;;4.43;4.03;;;14.40;97.20;;;;;;1707798;29;20204;-67
2023/03/24 08:40:19;;;;;;;3.72;3.30;;;14.40;97.20;;;;;;1707795;28;20210;-66
2023/03/24 08:41:10;;;;;;;3.83;3.53;;;14.40;97.20;;;;;;1707828;29;20199;-66
2023/03/24 08:42:01;;;;;;;3.95;3.65;;;14.40;97.20;;;;;;1707769;29;20203;-66
2023/03/24 08:42:55;;;;;;;4.00;3.60;;;14.40;97.20;;;;;;1707582;29;20202;-67
2023/03/24 08:43:46;;;;;;;4.05;3.75;;;14.40;97.20;;;;;;1707661;29;20477;-66
2023/03/24 08:44:38;;;;;;;3.97;3.40;;;14.40;97.20;;;;;;1707889;29;20685;-67
2023/03/24 08:45:31;;;;;;;5.38;3.63;;;14.40;97.20;;;;;;1707427;29;20559;-66
2023/03/24 08:46:22;;;;;;;3.78;3.47;;;14.40;97.20;;;;;;1707743;29;20206;-65
2023/03/24 08:47:13;;;;;;;4.00;3.60;;;14.40;97.20;;;;;;1707813;29;20210;-67
2023/03/24 08:48:07;;;;;;;3.60;3.30;;;14.30;97.20;;;;;;1707778;29;20213;-66
2023/03/24 08:48:57;;;;;;;3.78;3.47;;;14.30;97.20;;;;;;1707834;28;20206;-65
2023/03/24 08:49:50;;;;;;;3.77;3.47;;;14.30;97.20;;;;;;1707947;29;20212;-67
2023/03/24 08:50:42;;;;;;;3.58;3.28;;;14.30;97.20;;;;;;1707708;29;20502;-66
2023/03/24 08:51:34;;;;;;;3.63;3.33;;;14.30;97.20;;;;;;1707896;29;20618;-66
2023/03/24 08:52:25;;;;;;;3.83;3.53;;;14.30;97.20;;;;;;1707663;29;20222;-66
2023/03/24 08:53:17;;;;;;;3.00;2.80;;;14.30;97.20;;;;;;1707696;29;20227;-65
2023/03/24 08:54:08;;;;;;;3.47;3.17;;;14.30;97.20;;;;;;1707730;29;20213;-66
2023/03/24 08:55:00;;;;;;;3.70;3.47;;;14.30;97.20;;;;;;1707801;29;20209;-67
2023/03/24 08:55:51;;;;;;;3.25;3.00;;;14.30;97.20;;;;;;1707504;29;20707;-66
2023/03/24 08:56:42;;;;;;;3.53;3.23;;;14.30;97.20;;;;;;1707667;29;20631;-66
2023/03/24 08:57:33;;;;;;;3.67;3.38;;;14.40;97.20;;;;;;1707856;29;20496;-66
2023/03/24 08:58:25;;;;;;;3.80;3.50;;;14.40;97.20;;;;;;1707723;29;20282;-66
2023/03/24 08:59:16;;;;;;;4.22;3.83;;;14.40;97.20;;;;;;1707496;29;20199;-66
2023/03/24 09:00:13;;;;;;;4.00;3.60;;;14.40;97.20;;;;;;1707818;28;20225;-66
2023/03/24 09:01:04;;;;;;;3.88;3.58;;;14.40;97.20;;;;;;1707765;28;20218;-65
2023/03/24 09:01:56;;;;;;;3.97;3.63;;;14.40;97.20;;;;;;1707823;28;20286;-66
2023/03/24 09:02:48;;;;;;;5.90;4.05;;;14.50;97.20;;;;;;1707712;28;20214;-67
2023/03/24 09:03:40;;;;;;;4.70;4.30;;;14.50;97.20;;;;;;1707704;29;20712;-66
2023/03/24 09:04:31;;;;;;;4.25;3.95;;;14.50;97.20;;;;;;1707727;28;20202;-66
2023/03/24 09:05:25;;;;;;;4.43;3.83;;;14.50;97.20;;;;;;1707508;28;20202;-66
2023/03/24 09:06:17;;;;;;;4.35;4.00;;;14.50;97.20;;;;;;1707717;28;20269;-66
2023/03/24 09:07:10;;;;;;;4.60;4.20;;;14.50;97.20;;;;;;1707564;28;20268;-66
2023/03/24 09:08:02;;;;;;;4.38;3.97;;;14.50;97.20;;;;;;1707689;28;20210;-65
2023/03/24 09:08:53;;;;;;;5.90;4.20;;;14.60;97.20;;;;;;1707654;28;20736;-66
2023/03/24 09:09:44;;;;;;;4.78;4.38;;;14.60;97.20;;;;;;1707642;28;20206;-66
2023/03/24 09:10:36;;;;;;;4.23;3.90;;;14.60;97.20;;;;;;1707682;28;20218;-67
2023/03/24 09:11:27;;;;;;;4.15;3.80;;;14.60;97.20;;;;;;1707731;28;20206;-66
2023/03/24 09:12:18;;;;;;;3.93;3.63;;;14.60;97.20;;;;;;1707703;28;20212;-66
2023/03/24 09:13:09;;;;;;;4.93;4.10;;;14.60;97.20;;;;;;1707613;28;20604;-67
2023/03/24 09:14:01;;;;;;;5.10;4.60;;;14.60;97.20;;;;;;1707696;28;20220;-66
2023/03/24 09:14:52;;;;;;;4.70;4.20;;;14.60;97.20;;;;;;1707700;28;20446;-66
2023/03/24 09:15:47;;;;;;;4.47;4.13;;;14.60;97.20;;;;;;1707132;28;20199;-66
2023/03/24 09:16:38;;;;;;;4.45;4.05;;;14.60;97.20;;;;;;1707612;28;20207;-66
2023/03/24 09:17:29;;;;;;;4.60;4.30;;;14.60;97.20;;;;;;1707636;28;20205;-65
2023/03/24 09:18:21;;;;;;;4.43;3.97;;;14.70;97.20;;;;;;1707596;28;20206;-66
2023/03/24 09:19:12;;;;;;;4.63;3.67;;;14.70;97.20;;;;;;1707620;28;20199;-67
2023/03/24 09:20:06;;;;;;;4.30;3.90;;;14.70;97.20;;;;;;1707629;28;20402;-66
2023/03/24 09:20:58;;;;;;;4.63;4.25;;;14.70;97.20;;;;;;1707556;28;20222;-68
2023/03/24 09:21:50;;;;;;;4.45;4.05;;;14.80;97.20;;;;;;1707549;28;20202;-66
2023/03/24 09:22:44;;;;;;;4.13;3.83;;;14.80;97.20;;;;;;1707539;28;20213;-65
2023/03/24 09:23:35;;;;;;;4.18;3.60;;;14.80;97.20;;;;;;1707662;28;20198;-65
2023/03/24 09:24:26;;;;;;;4.00;3.70;;;14.80;97.20;;;;;;1707521;28;20325;-66
2023/03/24 09:25:19;;;;;;;4.38;3.97;;;14.90;97.20;;;;;;1707305;28;20210;-65
2023/03/24 09:26:11;;;;;;;4.00;3.58;;;14.90;97.20;;;;;;1707639;28;20281;-66
2023/03/24 09:27:02;;;;;;;4.10;3.80;;;14.90;97.20;;;;;;1707500;28;20213;-67
2023/03/24 09:27:55;;;;;;;3.70;3.40;;;15.00;97.20;;;;;;1707661;28;20210;-65
2023/03/24 09:28:46;;;;;;;3.80;3.50;;;15.00;97.20;;;;;;1707661;28;20826;-65
2023/03/24 09:29:37;;;;;;;4.03;3.60;;;15.10;97.20;;;;;;1707619;28;20583;-67
2023/03/24 09:30:29;;;;;;;4.10;3.80;;;15.10;97.20;;;;;;1707365;28;20209;-67
2023/03/24 09:31:20;;;;;;;3.70;3.40;;;15.10;97.20;;;;;;1707072;28;20213;-66
2023/03/24 09:32:11;;;;;;;3.97;3.67;;;15.20;97.20;;;;;;1707246;28;20206;-66
2023/03/24 09:33:03;;;;;;;3.97;3.57;;;15.20;97.20;;;;;;1707341;29;20281;-67
2023/03/24 09:33:54;;;;;;;4.15;3.75;;;15.30;97.20;;;;;;1707479;29;20207;-65
2023/03/24 09:34:45;;;;;;;4.63;3.33;;;15.40;97.20;;;;;;1707436;29;20625;-64
2023/03/24 09:35:37;;;;;;;4.30;3.90;;;15.50;97.20;;;;;;1707269;29;20210;-65
2023/03/24 09:36:28;;;;;;;3.85;3.55;;;15.60;97.20;;;;;;1707340;29;20210;-65
2023/03/24 09:37:21;;;;;;;4.43;3.03;;;15.70;97.20;;;;;;1707450;29;20206;-64
2023/03/24 09:38:12;;;;;;;2.90;2.53;;;15.80;97.20;;;;;;1707481;29;20206;-65
2023/03/24 09:39:03;;;;;;;3.70;3.30;;;15.90;97.20;;;;;;1707590;28;20209;-64
2023/03/24 09:39:54;;;;;;;3.38;3.08;;;16.00;97.20;;;;;;1707529;29;20206;-65
2023/03/24 09:40:50;;;;;;;3.20;2.93;;;16.10;97.20;;;;;;1707354;28;20309;-64
2023/03/24 09:41:44;;;;;;;3.15;2.80;;;16.30;97.20;;;;;;1707522;28;20438;-64
2023/03/24 09:42:40;;;;;;;2.80;2.60;;;16.40;97.20;;;;;;1707465;29;20206;-64
2023/03/24 09:43:37;;;;;;;3.03;2.83;;;16.50;97.20;;;;;;1707532;28;20221;-65
2023/03/24 09:44:34;;;;;;;4.25;3.33;;;16.70;97.20;;;;;;1707463;29;20198;-64
2023/03/24 09:45:28;;;;;;;3.75;3.40;;;16.80;97.20;;;;;;1707122;29;20587;-64
2023/03/24 09:46:28;;;;;;;3.38;3.08;;;17.00;97.20;;;;;;1707535;29;20213;-64
2023/03/24 09:47:26;;;;;;;3.72;3.42;;;17.00;97.20;;;;;;1707468;29;20590;-64
2023/03/24 09:48:24;;;;;;;3.22;2.83;;;17.10;97.20;;;;;;1707415;29;20210;-65
2023/03/24 09:49:22;;;;;;;3.20;2.80;;;17.10;97.20;;;;;;1706707;29;20210;-64
2023/03/24 09:50:21;;;;;;;3.30;3.00;;;17.10;97.20;;;;;;1707205;28;20253;-65
2023/03/24 09:51:19;;;;;;;2.85;2.65;;;17.10;97.20;;;;;;1707480;28;20679;-64
2023/03/24 09:52:15;;;;;;;3.83;2.78;;;17.20;97.20;;;;;;1707486;28;20207;-64
2023/03/24 09:53:17;;;;;;;4.10;2.85;;;17.20;97.20;;;;;;1707374;28;20218;-63
2023/03/24 09:54:14;;;;;;;3.20;2.90;;;17.20;97.20;;;;;;1707446;28;20245;-64
2023/03/24 09:55:13;;;;;;;3.35;3.05;;;17.30;97.20;;;;;;1707495;28;20261;-65
2023/03/24 09:56:12;;;;;;;3.35;3.08;;;17.40;97.20;;;;;;1707511;28;20203;-64
2023/03/24 09:57:03;;;;;;;2.78;2.58;;;17.70;97.20;;;;;;1707465;28;20272;-65
2023/03/24 09:58:01;;;;;;;2.65;2.45;;;18.00;97.20;;;;;;1707394;28;20202;-64
2023/03/24 09:59:01;;;;;;;2.63;2.42;;;18.40;97.20;;;;;;1707554;28;20210;-64
2023/03/24 09:59:52;;;;;;;2.60;2.40;;;18.70;97.20;;;;;;1707524;28;20719;-64
2023/03/24 10:00:44;;;;;;;3.05;2.85;;;19.30;97.20;;;;;;1707244;28;20226;-64
2023/03/24 10:01:36;;;;;;;5.10;2.65;;;19.70;97.20;;;;;;1707454;28;20567;-64
2023/03/24 10:02:28;;;;;;;2.70;2.50;;;20.10;97.20;;;;;;1707518;28;20202;-65
2023/03/24 10:03:22;;;;;;;2.70;2.50;;;20.70;97.20;;;;;;1707282;28;20261;-64
2023/03/24 10:04:15;;;;;;;2.63;2.42;;;21.00;97.20;;;;;;1707367;28;20461;-63
2023/03/24 10:05:13;;;;;;;2.30;2.10;;;21.10;97.20;;;;;;1707008;28;20213;-64
2023/03/24 10:06:08;;;;;;;2.50;2.25;;;21.80;97.20;;;;;;1707133;28;20283;-65
2023/03/24 10:07:07;;;;;;;2.42;2.22;;;22.00;97.20;;;;;;1707089;28;20206;-66
2023/03/24 10:08:03;;;;;;;2.83;2.58;;;22.00;97.20;;;;;;1707158;28;20691;-66
2023/03/24 10:09:12;;;;;;;2.47;2.28;;;21.80;97.20;;;;;;1707441;28;20716;-66
2023/03/24 10:10:15;;;;;;;2.17;2.05;;;21.70;97.20;;;;;;1707378;28;20222;-66
2023/03/24 10:11:20;;;;;;;4.60;2.75;;;21.70;97.20;;;;;;1707305;28;20233;-66
2023/03/24 10:12:24;;;;;;;2.30;2.10;;;21.50;97.20;;;;;;1707437;28;20206;-66
2023/03/24 10:13:22;;;;;;;2.30;2.10;;;21.10;97.20;;;;;;1707371;28;20565;-66
2023/03/24 10:14:26;;;;;;;2.90;2.60;;;20.80;97.20;;;;;;1707360;28;20207;-67
2023/03/24 10:15:26;;;;;;;2.70;2.30;;;20.50;97.20;;;;;;1707138;28;20207;-67
2023/03/24 10:16:25;;;;;;;2.42;2.20;;;20.20;97.20;;;;;;1707394;28;20233;-66
2023/03/24 10:17:25;;;;;;;2.47;2.28;;;19.90;97.20;;;;;;1707345;28;20277;-67
2023/03/24 10:18:30;;;;;;;2.60;2.40;;;19.60;97.20;;;;;;1707404;28;20253;-66
2023/03/24 10:19:37;;;;;;;2.90;2.70;;;19.40;97.20;;;;;;1707393;28;20250;-66
2023/03/24 10:20:35;;;;;;;2.28;2.08;;;19.20;97.20;;;;;;1707215;28;20736;-66
2023/03/24 10:21:30;;;;;;;2.42;2.22;;;19.20;97.20;;;;;;1707032;28;20218;-66
2023/03/24 10:22:27;;;;;;;2.10;1.90;;;19.20;97.20;;;;;;1707261;29;20207;-65
2023/03/24 10:23:26;;;;;;;2.75;2.25;;;19.70;97.20;;;;;;1707207;29;20226;-67
2023/03/24 10:24:23;;;;;;;2.10;2.00;;;20.10;97.20;;;;;;1707235;29;20218;-65
2023/03/24 10:25:21;;;;;;;2.25;2.13;;;20.30;97.20;;;;;;1707170;28;20222;-65
2023/03/24 10:26:26;;;;;;;1.80;1.70;;;20.30;97.20;;;;;;1707356;29;20687;-65
2023/03/24 10:27:22;;;;;;;1.70;1.60;;;20.10;97.20;;;;;;1707319;29;20217;-64
2023/03/24 10:28:19;;;;;;;2.78;1.90;;;20.00;97.20;;;;;;1707342;29;20205;-65
2023/03/24 10:29:21;;;;;;;2.20;2.00;;;20.10;97.20;;;;;;1707415;29;20214;-65
2023/03/24 10:30:17;;;;;;;1.70;1.60;;;20.20;97.20;;;;;;1707114;28;20203;-64
2023/03/24 10:31:12;;;;;;;1.60;1.50;;;20.10;97.20;;;;;;1707255;29;20217;-65
2023/03/24 10:32:18;;;;;;;1.77;1.48;;;20.00;97.20;;;;;;1707277;29;20286;-65
2023/03/24 10:33:09;;;;;;;1.55;1.45;;;20.30;97.20;;;;;;1707255;29;20297;-65
2023/03/24 10:34:02;;;;;;;2.13;1.65;;;20.90;97.20;;;;;;1707155;29;20222;-65
2023/03/24 10:34:57;;;;;;;1.35;1.20;;;21.10;97.20;;;;;;1707165;29;20209;-65